sensor_id;sensor_type;location;lat;lon;timestamp;P1;durP1;ratioP1;P2;durP2;ratioP2
57339;SDS011;43174;50.930;18.170;2023-07-29T00:09:02;2.60;;;2.50;;
57339;SDS011;43174;50.930;18.170;2023-07-29T00:18:47;3.50;;;2.60;;
57339;SDS011;43174;50.930;18.170;2023-07-29T00:28:29;3.50;;;3.30;;
57339;SDS011;43174;50.930;18.170;2023-07-29T00:38:11;3.20;;;3.10;;
57339;SDS011;43174;50.930;18.170;2023-07-29T00:45:29;4.60;;;4.30;;
57339;SDS011;43174;50.930;18.170;2023-07-29T00:55:11;3.60;;;3.40;;
57339;SDS011;43174;50.930;18.170;2023-07-29T01:04:58;4.30;;;2.50;;
57339;SDS011;43174;50.930;18.170;2023-07-29T01:24:45;4.50;;;4.10;;
57339;SDS011;43174;50.930;18.170;2023-07-29T01:34:32;3.60;;;3.40;;
57339;SDS011;43174;50.930;18.170;2023-07-29T01:44:18;3.40;;;3.20;;
57339;SDS011;43174;50.930;18.170;2023-07-29T01:54:00;3.00;;;2.90;;
57339;SDS011;43174;50.930;18.170;2023-07-29T02:03:43;11.80;;;2.20;;
57339;SDS011;43174;50.930;18.170;2023-07-29T02:13:25;3.40;;;3.30;;
57339;SDS011;43174;50.930;18.170;2023-07-29T02:23:14;4.80;;;3.10;;
57339;SDS011;43174;50.930;18.170;2023-07-29T02:32:57;16.60;;;3.50;;
57339;SDS011;43174;50.930;18.170;2023-07-29T02:42:39;4.10;;;3.70;;
57339;SDS011;43174;50.930;18.170;2023-07-29T02:52:20;3.20;;;3.10;;
57339;SDS011;43174;50.930;18.170;2023-07-29T03:02:02;3.80;;;3.60;;
57339;SDS011;43174;50.930;18.170;2023-07-29T03:11:44;2.20;;;2.10;;
57339;SDS011;43174;50.930;18.170;2023-07-29T03:21:26;3.00;;;2.80;;
57339;SDS011;43174;50.930;18.170;2023-07-29T03:31:08;3.90;;;3.70;;
57339;SDS011;43174;50.930;18.170;2023-07-29T03:40:50;3.10;;;3.00;;
57339;SDS011;43174;50.930;18.170;2023-07-29T03:45:42;3.90;;;2.50;;
57339;SDS011;43174;50.930;18.170;2023-07-29T03:55:23;2.30;;;2.20;;
57339;SDS011;43174;50.930;18.170;2023-07-29T04:05:05;3.90;;;2.80;;
57339;SDS011;43174;50.930;18.170;2023-07-29T04:14:51;2.60;;;2.50;;
57339;SDS011;43174;50.930;18.170;2023-07-29T04:24:32;6.30;;;3.90;;
57339;SDS011;43174;50.930;18.170;2023-07-29T04:34:14;4.90;;;4.70;;
57339;SDS011;43174;50.930;18.170;2023-07-29T04:43:56;4.40;;;4.20;;
57339;SDS011;43174;50.930;18.170;2023-07-29T04:53:38;7.80;;;3.80;;
57339;SDS011;43174;50.930;18.170;2023-07-29T05:03:20;3.60;;;3.40;;
57339;SDS011;43174;50.930;18.170;2023-07-29T05:13:01;4.30;;;4.00;;
57339;SDS011;43174;50.930;18.170;2023-07-29T05:22:43;3.60;;;3.50;;
57339;SDS011;43174;50.930;18.170;2023-07-29T05:32:25;3.50;;;3.30;;
57339;SDS011;43174;50.930;18.170;2023-07-29T05:42:07;4.00;;;3.70;;
57339;SDS011;43174;50.930;18.170;2023-07-29T05:51:50;4.20;;;4.00;;
57339;SDS011;43174;50.930;18.170;2023-07-29T06:01:33;7.20;;;6.80;;
57339;SDS011;43174;50.930;18.170;2023-07-29T06:11:15;3.40;;;3.20;;
57339;SDS011;43174;50.930;18.170;2023-07-29T06:20:56;2.30;;;2.20;;
57339;SDS011;43174;50.930;18.170;2023-07-29T06:30:40;2.40;;;2.20;;
57339;SDS011;43174;50.930;18.170;2023-07-29T06:40:23;1.80;;;1.70;;
57339;SDS011;43174;50.930;18.170;2023-07-29T06:47:41;2.70;;;1.40;;
57339;SDS011;43174;50.930;18.170;2023-07-29T06:57:24;0.70;;;0.70;;
57339;SDS011;43174;50.930;18.170;2023-07-29T07:07:09;7.20;;;1.80;;
57339;SDS011;43174;50.930;18.170;2023-07-29T07:16:52;2.50;;;0.90;;
57339;SDS011;43174;50.930;18.170;2023-07-29T07:26:34;2.70;;;0.90;;
57339;SDS011;43174;50.930;18.170;2023-07-29T07:36:17;0.60;;;0.60;;
57339;SDS011;43174;50.930;18.170;2023-07-29T07:45:59;1.20;;;0.70;;
57339;SDS011;43174;50.930;18.170;2023-07-29T07:55:42;0.40;;;0.40;;
57339;SDS011;43174;50.930;18.170;2023-07-29T08:05:23;0.30;;;0.30;;
57339;SDS011;43174;50.930;18.170;2023-07-29T08:15:05;0.80;;;0.80;;
57339;SDS011;43174;50.930;18.170;2023-07-29T08:24:49;0.50;;;0.40;;
57339;SDS011;43174;50.930;18.170;2023-07-29T08:34:31;1.20;;;0.90;;
57339;SDS011;43174;50.930;18.170;2023-07-29T08:44:17;0.50;;;0.50;;
57339;SDS011;43174;50.930;18.170;2023-07-29T08:54:01;0.40;;;0.40;;
57339;SDS011;43174;50.930;18.170;2023-07-29T09:03:44;2.00;;;0.70;;
57339;SDS011;43174;50.930;18.170;2023-07-29T09:13:26;1.90;;;0.80;;
57339;SDS011;43174;50.930;18.170;2023-07-29T09:15:55;1.40;;;0.80;;
57339;SDS011;43174;50.930;18.170;2023-07-29T09:25:39;1.10;;;1.10;;
57339;SDS011;43174;50.930;18.170;2023-07-29T09:30:30;0.80;;;0.70;;
57339;SDS011;43174;50.930;18.170;2023-07-29T09:40:14;0.90;;;0.80;;
57339;SDS011;43174;50.930;18.170;2023-07-29T09:49:58;13.80;;;0.60;;
57339;SDS011;43174;50.930;18.170;2023-07-29T09:59:42;1.00;;;1.00;;
57339;SDS011;43174;50.930;18.170;2023-07-29T10:09:24;0.70;;;0.70;;
57339;SDS011;43174;50.930;18.170;2023-07-29T10:19:07;0.80;;;0.80;;
57339;SDS011;43174;50.930;18.170;2023-07-29T10:28:49;0.90;;;0.90;;
57339;SDS011;43174;50.930;18.170;2023-07-29T10:38:33;0.60;;;0.60;;
57339;SDS011;43174;50.930;18.170;2023-07-29T10:58:15;0.50;;;0.50;;
57339;SDS011;43174;50.930;18.170;2023-07-29T11:08:01;0.30;;;0.30;;
57339;SDS011;43174;50.930;18.170;2023-07-29T11:17:59;2.30;;;0.60;;
57339;SDS011;43174;50.930;18.170;2023-07-29T11:27:44;0.70;;;0.50;;
57339;SDS011;43174;50.930;18.170;2023-07-29T11:37:34;0.90;;;0.60;;
57339;SDS011;43174;50.930;18.170;2023-07-29T11:47:17;0.60;;;0.60;;
57339;SDS011;43174;50.930;18.170;2023-07-29T11:56:59;0.40;;;0.40;;
57339;SDS011;43174;50.930;18.170;2023-07-29T12:06:41;1.30;;;0.40;;
57339;SDS011;43174;50.930;18.170;2023-07-29T12:16:26;0.30;;;0.30;;
57339;SDS011;43174;50.930;18.170;2023-07-29T12:26:08;0.50;;;0.50;;
57339;SDS011;43174;50.930;18.170;2023-07-29T12:35:50;0.80;;;0.60;;
57339;SDS011;43174;50.930;18.170;2023-07-29T12:45:36;0.60;;;0.60;;
57339;SDS011;43174;50.930;18.170;2023-07-29T12:50:27;2.20;;;0.60;;
57339;SDS011;43174;50.930;18.170;2023-07-29T13:00:11;0.30;;;0.30;;
57339;SDS011;43174;50.930;18.170;2023-07-29T13:09:54;0.40;;;0.40;;
57339;SDS011;43174;50.930;18.170;2023-07-29T13:19:36;0.90;;;0.90;;
57339;SDS011;43174;50.930;18.170;2023-07-29T13:29:18;0.40;;;0.40;;
57339;SDS011;43174;50.930;18.170;2023-07-29T13:39:00;0.40;;;0.40;;
57339;SDS011;43174;50.930;18.170;2023-07-29T13:48:42;1.20;;;1.00;;
57339;SDS011;43174;50.930;18.170;2023-07-29T13:58:23;0.30;;;0.30;;
57339;SDS011;43174;50.930;18.170;2023-07-29T14:08:05;0.50;;;0.50;;
57339;SDS011;43174;50.930;18.170;2023-07-29T14:17:47;0.60;;;0.60;;
57339;SDS011;43174;50.930;18.170;2023-07-29T14:27:29;0.60;;;0.60;;
57339;SDS011;43174;50.930;18.170;2023-07-29T14:37:11;11.70;;;0.40;;
57339;SDS011;43174;50.930;18.170;2023-07-29T14:46:53;1.70;;;1.60;;
57339;SDS011;43174;50.930;18.170;2023-07-29T14:56:36;2.20;;;2.00;;
57339;SDS011;43174;50.930;18.170;2023-07-29T15:06:18;2.00;;;1.90;;
57339;SDS011;43174;50.930;18.170;2023-07-29T15:16:01;1.30;;;1.20;;
57339;SDS011;43174;50.930;18.170;2023-07-29T15:25:46;0.60;;;0.60;;
57339;SDS011;43174;50.930;18.170;2023-07-29T15:35:29;1.00;;;1.00;;
57339;SDS011;43174;50.930;18.170;2023-07-29T15:45:10;0.80;;;0.80;;
57339;SDS011;43174;50.930;18.170;2023-07-29T15:52:27;1.00;;;0.90;;
57339;SDS011;43174;50.930;18.170;2023-07-29T16:02:11;1.00;;;1.00;;
57339;SDS011;43174;50.930;18.170;2023-07-29T16:11:53;0.90;;;0.90;;
57339;SDS011;43174;50.930;18.170;2023-07-29T16:21:37;0.70;;;0.70;;
57339;SDS011;43174;50.930;18.170;2023-07-29T16:31:19;0.90;;;0.40;;
57339;SDS011;43174;50.930;18.170;2023-07-29T16:41:01;0.80;;;0.80;;
57339;SDS011;43174;50.930;18.170;2023-07-29T16:50:43;0.60;;;0.60;;
57339;SDS011;43174;50.930;18.170;2023-07-29T17:00:25;15.90;;;1.30;;
57339;SDS011;43174;50.930;18.170;2023-07-29T17:10:07;6.40;;;0.90;;
57339;SDS011;43174;50.930;18.170;2023-07-29T17:19:49;0.70;;;0.60;;
57339;SDS011;43174;50.930;18.170;2023-07-29T17:29:32;5.90;;;0.50;;
57339;SDS011;43174;50.930;18.170;2023-07-29T17:39:14;15.20;;;0.40;;
57339;SDS011;43174;50.930;18.170;2023-07-29T17:48:56;0.50;;;0.30;;
57339;SDS011;43174;50.930;18.170;2023-07-29T17:58:40;2.50;;;0.30;;
57339;SDS011;43174;50.930;18.170;2023-07-29T18:08:22;0.70;;;0.70;;
57339;SDS011;43174;50.930;18.170;2023-07-29T18:18:06;0.80;;;0.70;;
57339;SDS011;43174;50.930;18.170;2023-07-29T18:27:55;0.60;;;0.60;;
57339;SDS011;43174;50.930;18.170;2023-07-29T18:37:44;2.00;;;0.70;;
57339;SDS011;43174;50.930;18.170;2023-07-29T18:47:26;0.80;;;0.80;;
57339;SDS011;43174;50.930;18.170;2023-07-29T18:54:44;0.70;;;0.70;;
57339;SDS011;43174;50.930;18.170;2023-07-29T19:04:28;0.50;;;0.50;;
57339;SDS011;43174;50.930;18.170;2023-07-29T19:14:11;0.90;;;0.90;;
57339;SDS011;43174;50.930;18.170;2023-07-29T19:23:53;0.60;;;0.60;;
57339;SDS011;43174;50.930;18.170;2023-07-29T19:33:37;3.10;;;2.70;;
57339;SDS011;43174;50.930;18.170;2023-07-29T19:43:22;1.40;;;1.40;;
57339;SDS011;43174;50.930;18.170;2023-07-29T19:53:06;2.40;;;1.10;;
57339;SDS011;43174;50.930;18.170;2023-07-29T20:02:52;0.70;;;0.70;;
57339;SDS011;43174;50.930;18.170;2023-07-29T20:12:33;0.60;;;0.60;;
57339;SDS011;43174;50.930;18.170;2023-07-29T20:22:17;1.00;;;1.00;;
57339;SDS011;43174;50.930;18.170;2023-07-29T20:31:59;2.50;;;2.40;;
57339;SDS011;43174;50.930;18.170;2023-07-29T20:41:41;1.50;;;1.40;;
57339;SDS011;43174;50.930;18.170;2023-07-29T20:51:26;0.60;;;0.60;;
57339;SDS011;43174;50.930;18.170;2023-07-29T21:01:09;0.80;;;0.80;;
57339;SDS011;43174;50.930;18.170;2023-07-29T21:10:54;1.40;;;1.40;;
57339;SDS011;43174;50.930;18.170;2023-07-29T21:20:36;0.70;;;0.70;;
57339;SDS011;43174;50.930;18.170;2023-07-29T21:30:19;1.40;;;1.40;;
57339;SDS011;43174;50.930;18.170;2023-07-29T21:40:01;1.80;;;1.70;;
57339;SDS011;43174;50.930;18.170;2023-07-29T21:49:43;0.80;;;0.80;;
57339;SDS011;43174;50.930;18.170;2023-07-29T21:56:59;5.40;;;1.50;;
57339;SDS011;43174;50.930;18.170;2023-07-29T22:06:41;1.10;;;1.10;;
57339;SDS011;43174;50.930;18.170;2023-07-29T22:16:24;1.10;;;1.10;;
57339;SDS011;43174;50.930;18.170;2023-07-29T22:26:09;11.20;;;1.10;;
57339;SDS011;43174;50.930;18.170;2023-07-29T22:35:57;1.40;;;1.10;;
57339;SDS011;43174;50.930;18.170;2023-07-29T22:45:39;2.00;;;1.90;;
57339;SDS011;43174;50.930;18.170;2023-07-29T22:55:25;5.80;;;2.20;;
57339;SDS011;43174;50.930;18.170;2023-07-29T23:05:07;2.60;;;2.40;;
57339;SDS011;43174;50.930;18.170;2023-07-29T23:14:48;1.70;;;1.60;;
57339;SDS011;43174;50.930;18.170;2023-07-29T23:24:30;2.30;;;2.20;;
57339;SDS011;43174;50.930;18.170;2023-07-29T23:34:12;1.70;;;1.60;;
57339;SDS011;43174;50.930;18.170;2023-07-29T23:43:54;1.90;;;1.80;;
57339;SDS011;43174;50.930;18.170;2023-07-29T23:53:35;3.10;;;2.90;;
